Time;durP1;ratioP1;P1;durP2;ratioP2;P2;SDS_P1;SDS_P2;PMS_P1;PMS_P2;Temp;Humidity;BMP_temperature;BMP_pressure;BME280_temperature;BME280_humidity;BME280_pressure;Samples;Min_cycle;Max_cycle;Signal;HPM_P1;HPM_P2
2021/09/12 00:02:13;;;;;;;8.63;5.10;;;17.00;99.90;;;;;;5040751;28;19921;-78
2021/09/12 00:04:39;;;;;;;;;;;17.00;99.90;;;;;;5008208;28;20064;-78
2021/09/12 00:07:05;;;;;;;9.15;4.63;;;17.00;99.90;;;;;;4991582;28;19977;-78
2021/09/12 00:09:31;;;;;;;;;;;16.90;99.90;;;;;;4992051;28;20044;-77
2021/09/12 00:11:57;;;;;;;13.38;6.80;;;17.00;99.90;;;;;;4991543;28;19917;-78
2021/09/12 00:14:23;;;;;;;10.13;6.00;;;16.90;99.90;;;;;;5008047;28;20045;-78
2021/09/12 00:16:48;;;;;;;;;;;16.90;99.90;;;;;;4992950;28;20064;-77
2021/09/12 00:19:14;;;;;;;10.65;5.57;;;16.90;99.90;;;;;;5027062;28;19940;-77
2021/09/12 00:21:40;;;;;;;;;;;16.90;99.90;;;;;;4991438;28;20038;-77
2021/09/12 00:24:05;;;;;;;11.98;6.35;;;16.90;99.90;;;;;;5008206;28;19931;-77
2021/09/12 00:26:31;;;;;;;;;;;16.90;99.90;;;;;;5007384;28;20100;-77
2021/09/12 00:28:57;;;;;;;12.93;7.22;;;16.90;99.90;;;;;;5042546;28;20036;-77
2021/09/12 00:31:22;;;;;;;;;;;16.90;99.90;;;;;;5009114;28;20058;-78
2021/09/12 00:33:48;;;;;;;13.65;7.82;;;16.80;99.90;;;;;;4992785;28;19925;-78
2021/09/12 00:36:14;;;;;;;;;;;16.90;99.90;;;;;;5010917;28;20414;-78
2021/09/12 00:38:39;;;;;;;11.30;7.03;;;16.90;99.90;;;;;;5043224;28;19917;-78
2021/09/12 00:41:05;;;;;;;;;;;16.90;99.90;;;;;;5010135;28;20060;-78
2021/09/12 00:43:30;;;;;;;12.70;7.60;;;16.80;99.90;;;;;;4993610;28;19921;-78
2021/09/12 00:45:57;;;;;;;;;;;16.80;99.90;;;;;;5010726;28;20057;-79
2021/09/12 00:48:23;;;;;;;11.90;6.73;;;16.80;99.90;;;;;;5009432;28;19924;-78
2021/09/12 00:50:50;;;;;;;16.38;8.00;;;16.90;99.90;;;;;;4993430;28;20110;-78
2021/09/12 00:53:17;;;;;;;9.50;6.47;;;16.80;99.90;;;;;;5010445;28;20392;-78
2021/09/12 00:55:45;;;;;;;14.95;9.15;;;16.80;99.90;;;;;;5009784;28;20077;-78
2021/09/12 00:58:17;;;;;;;13.57;7.03;;;16.80;99.90;;;;;;5009008;28;20158;-78
2021/09/12 01:00:43;;;;;;;11.07;7.72;;;16.80;99.90;;;;;;5026031;28;20100;-78
2021/09/12 01:03:09;;;;;;;21.38;6.97;;;16.80;99.90;;;;;;5008991;28;20050;-78
2021/09/12 01:05:35;;;;;;;;;;;16.80;99.90;;;;;;5010218;28;20050;-78
2021/09/12 01:08:01;;;;;;;11.52;7.70;;;16.80;99.90;;;;;;5010470;28;19929;-78
2021/09/12 01:10:27;;;;;;;13.25;6.47;;;16.70;99.90;;;;;;4993706;28;20038;-78
2021/09/12 01:12:52;;;;;;;;;;;16.70;99.90;;;;;;4993404;28;20483;-78
2021/09/12 01:15:19;;;;;;;15.63;5.53;;;16.80;99.90;;;;;;5045350;28;19921;-78
2021/09/12 01:17:45;;;;;;;13.10;8.45;;;16.80;99.90;;;;;;5008496;28;20044;-77
2021/09/12 01:20:11;;;;;;;12.63;7.60;;;16.80;99.90;;;;;;5001069;28;20380;-78
2021/09/12 01:22:37;;;;;;;11.77;5.05;;;16.80;99.90;;;;;;5004482;28;20053;-78
2021/09/12 01:25:04;;;;;;;11.38;7.30;;;16.80;99.90;;;;;;4991162;28;20034;-78
2021/09/12 01:27:29;;;;;;;11.77;6.93;;;16.90;99.90;;;;;;5004993;28;20045;-78
2021/09/12 01:29:55;;;;;;;11.13;6.82;;;16.90;99.90;;;;;;4995895;28;20054;-78
2021/09/12 01:32:23;;;;;;;;;;;16.90;99.90;;;;;;5000499;28;20050;-78
2021/09/12 01:34:48;;;;;;;;;;;16.90;99.90;;;;;;5000693;28;19917;-78
2021/09/12 01:37:14;;;;;;;14.70;6.43;;;16.90;99.90;;;;;;5019864;28;19929;-78
2021/09/12 01:39:39;;;;;;;;;;;16.90;99.90;;;;;;4990658;28;20053;-78
2021/09/12 01:42:05;;;;;;;15.18;8.57;;;16.90;99.90;;;;;;4990272;28;19936;-78
2021/09/12 01:44:32;;;;;;;;;;;16.90;99.90;;;;;;4979994;28;20665;-78
2021/09/12 01:46:57;;;;;;;13.70;6.47;;;16.90;99.90;;;;;;5002527;28;19917;-78
2021/09/12 01:49:23;;;;;;;;;;;16.90;99.90;;;;;;4993273;28;20095;-78
2021/09/12 01:51:50;;;;;;;16.45;6.07;;;16.90;99.90;;;;;;5036374;28;20263;-78
2021/09/12 01:54:16;;;;;;;7.30;4.32;;;16.90;99.90;;;;;;4994003;28;20042;-78
2021/09/12 01:56:43;;;;;;;11.70;6.60;;;16.80;99.90;;;;;;5002143;28;20068;-78
2021/09/12 01:59:09;;;;;;;9.68;5.28;;;16.80;99.90;;;;;;4993693;28;20092;-78
2021/09/12 02:01:35;;;;;;;9.73;4.40;;;16.70;99.90;;;;;;4985019;28;20431;-78
2021/09/12 02:04:00;;;;;;;;;;;16.70;99.90;;;;;;4998310;28;20070;-77
2021/09/12 02:06:26;;;;;;;11.10;5.38;;;16.60;99.90;;;;;;5010461;28;20008;-78
2021/09/12 02:08:52;;;;;;;10.27;4.68;;;16.60;99.90;;;;;;5003357;28;20524;-77
2021/09/12 02:11:17;;;;;;;;;;;16.60;99.90;;;;;;5002708;28;20488;-77
2021/09/12 02:13:43;;;;;;;13.77;5.60;;;16.60;99.90;;;;;;5009462;28;19917;-77
2021/09/12 02:16:09;;;;;;;;;;;16.60;99.90;;;;;;5018248;28;20103;-77
2021/09/12 02:18:34;;;;;;;11.30;5.82;;;16.60;99.90;;;;;;4996360;28;20358;-77
2021/09/12 02:21:00;;;;;;;;;;;16.60;99.90;;;;;;4992438;28;20493;-78
2021/09/12 02:23:26;;;;;;;7.53;4.55;;;16.60;99.90;;;;;;5046266;28;19926;-77
2021/09/12 02:25:52;;;;;;;;;;;16.50;99.90;;;;;;4978176;28;20128;-77
2021/09/12 02:28:18;;;;;;;13.40;6.13;;;16.50;99.90;;;;;;5004099;28;20008;-77
2021/09/12 02:30:44;;;;;;;10.95;6.15;;;16.50;99.90;;;;;;4993419;28;20104;-77
2021/09/12 02:33:10;;;;;;;;;;;16.50;99.90;;;;;;5003659;28;20052;-77
2021/09/12 02:35:36;;;;;;;14.32;6.53;;;16.50;99.90;;;;;;5010558;28;20343;-77
2021/09/12 02:38:01;;;;;;;;;;;16.40;99.90;;;;;;4993702;28;20470;-77
2021/09/12 02:40:27;;;;;;;7.90;5.45;;;16.40;99.90;;;;;;5033254;28;19928;-78
2021/09/12 02:42:53;;;;;;;8.80;4.93;;;16.30;99.90;;;;;;4992474;28;20046;-77
2021/09/12 02:45:18;;;;;;;;;;;16.30;99.90;;;;;;5000490;28;20395;-77
2021/09/12 02:47:44;;;;;;;9.65;4.93;;;16.30;99.90;;;;;;5010571;28;19919;-77
2021/09/12 02:50:10;;;;;;;;;;;16.30;99.90;;;;;;5006503;28;20034;-77
2021/09/12 02:52:36;;;;;;;18.52;6.63;;;16.30;99.90;;;;;;4997262;28;19924;-76
2021/09/12 02:55:05;;;;;;;;;;;16.20;99.90;;;;;;4999069;28;20085;-77
2021/09/12 02:57:31;;;;;;;10.45;4.00;;;16.20;99.90;;;;;;4995914;28;20563;-76
2021/09/12 02:59:58;;;;;;;9.20;5.20;;;16.20;99.90;;;;;;5002445;28;20041;-77
2021/09/12 03:02:25;;;;;;;8.70;5.72;;;16.20;99.90;;;;;;4992276;28;20511;-77
2021/09/12 03:04:51;;;;;;;9.45;5.68;;;16.20;99.90;;;;;;4993231;28;20078;-77
2021/09/12 03:07:17;;;;;;;13.20;5.30;;;16.20;99.90;;;;;;5007793;28;20460;-77
2021/09/12 03:09:42;;;;;;;;;;;16.10;99.90;;;;;;5011830;28;20447;-77
2021/09/12 03:12:08;;;;;;;6.05;4.50;;;16.10;99.90;;;;;;5037367;28;20008;-77
2021/09/12 03:14:33;;;;;;;;;;;16.10;99.90;;;;;;5006742;28;20100;-77
2021/09/12 03:16:59;;;;;;;15.63;4.97;;;16.10;99.90;;;;;;5041314;28;20278;-77
2021/09/12 03:19:25;;;;;;;;;;;16.10;99.90;;;;;;4984880;28;20045;-77
2021/09/12 03:21:50;;;;;;;7.07;4.18;;;16.00;99.90;;;;;;5019213;28;20359;-77
2021/09/12 03:24:16;;;;;;;7.57;3.05;;;16.10;99.90;;;;;;4994147;28;20053;-77
2021/09/12 03:26:42;;;;;;;;;;;16.00;99.90;;;;;;4992710;28;20480;-77
2021/09/12 03:29:07;;;;;;;7.65;4.22;;;16.00;99.90;;;;;;4979552;28;19925;-76
2021/09/12 03:31:33;;;;;;;;;;;16.00;99.90;;;;;;5003017;28;20061;-78
2021/09/12 03:33:59;;;;;;;10.18;5.32;;;16.00;99.90;;;;;;4993722;28;20404;-77
2021/09/12 03:36:24;;;;;;;;;;;16.00;99.90;;;;;;5002822;28;20053;-78
2021/09/12 03:38:50;;;;;;;8.18;3.80;;;16.00;99.90;;;;;;5024255;28;19921;-77
2021/09/12 03:41:16;;;;;;;;;;;16.00;99.90;;;;;;5002970;28;20050;-77
2021/09/12 03:43:41;;;;;;;4.10;3.55;;;15.90;99.90;;;;;;4999939;28;19929;-77
2021/09/12 03:46:07;;;;;;;;;;;15.90;99.90;;;;;;5007048;28;20091;-77
2021/09/12 03:48:33;;;;;;;7.72;4.40;;;15.80;99.90;;;;;;5031909;28;19928;-78
2021/09/12 03:50:58;;;;;;;;;;;15.80;99.90;;;;;;5011366;28;20061;-77
2021/09/12 03:53:24;;;;;;;14.75;6.05;;;15.80;99.90;;;;;;5010327;28;19921;-77
2021/09/12 03:55:49;;;;;;;;;;;15.80;99.90;;;;;;4993064;28;20484;-77
2021/09/12 03:58:16;;;;;;;10.55;4.43;;;15.80;99.90;;;;;;5008774;28;19921;-77
2021/09/12 04:00:41;;;;;;;7.93;5.15;;;15.80;99.90;;;;;;5001081;28;20054;-76
2021/09/12 04:03:07;;;;;;;6.45;3.28;;;15.80;99.90;;;;;;5000846;28;20046;-77
2021/09/12 04:05:33;;;;;;;;;;;15.80;99.90;;;;;;4976065;28;20042;-76
2021/09/12 04:07:58;;;;;;;7.95;4.88;;;15.70;99.90;;;;;;4999529;28;19921;-77
2021/09/12 04:10:24;;;;;;;;;;;15.70;99.90;;;;;;4999320;28;20050;-77
2021/09/12 04:12:50;;;;;;;5.47;3.22;;;15.70;99.90;;;;;;4998052;28;19921;-77
2021/09/12 04:15:15;;;;;;;;;;;15.70;99.90;;;;;;5000843;28;20482;-77
2021/09/12 04:17:41;;;;;;;8.23;3.53;;;15.70;99.90;;;;;;5006466;28;19925;-77
2021/09/12 04:20:07;;;;;;;;;;;15.60;99.90;;;;;;4991022;28;20043;-77
2021/09/12 04:22:33;;;;;;;11.75;3.25;;;15.60;99.90;;;;;;5032993;28;19917;-77
2021/09/12 04:24:59;;;;;;;8.15;4.88;;;15.60;99.90;;;;;;4985774;28;20373;-76
2021/09/12 04:27:25;;;;;;;4.28;3.42;;;15.60;99.90;;;;;;5001858;28;20045;-77
2021/09/12 04:29:50;;;;;;;;;;;15.50;99.90;;;;;;4977796;28;20050;-77
2021/09/12 04:32:16;;;;;;;4.93;3.90;;;15.50;99.90;;;;;;4992834;28;20279;-76
2021/09/12 04:34:46;;;;;;;20.33;4.63;;;15.50;99.90;;;;;;5002250;28;20392;-77
2021/09/12 04:37:11;;;;;;;6.30;3.92;;;15.50;99.90;;;;;;4994799;28;20053;-78
2021/09/12 04:39:37;;;;;;;7.30;5.18;;;15.50;99.90;;;;;;5002108;28;20041;-76
2021/09/12 04:42:03;;;;;;;;;;;15.50;99.90;;;;;;4976863;28;20802;-76
2021/09/12 04:44:29;;;;;;;7.63;3.75;;;15.40;99.90;;;;;;5033253;28;19929;-76
2021/09/12 04:46:55;;;;;;;;;;;15.40;99.90;;;;;;5001212;28;20053;-76
2021/09/12 04:49:20;;;;;;;5.38;3.50;;;15.50;99.90;;;;;;5023368;28;19940;-77
2021/09/12 04:51:46;;;;;;;;;;;15.40;99.90;;;;;;4980892;28;20037;-77
2021/09/12 04:54:12;;;;;;;5.05;3.85;;;15.40;99.90;;;;;;5002250;28;19925;-77
2021/09/12 04:56:37;;;;;;;;;;;15.40;99.90;;;;;;4992036;28;20042;-77
2021/09/12 04:59:03;;;;;;;9.93;4.70;;;15.40;99.90;;;;;;5033812;28;19930;-78
2021/09/12 05:01:29;;;;;;;4.88;3.00;;;15.40;99.90;;;;;;5000183;28;20038;-77
2021/09/12 05:03:55;;;;;;;;;;;15.40;99.90;;;;;;4996108;28;20089;-77
2021/09/12 05:06:21;;;;;;;6.40;2.75;;;15.40;99.90;;;;;;4996822;28;20004;-76
2021/09/12 05:08:47;;;;;;;6.65;3.25;;;15.40;99.90;;;;;;4986485;28;20080;-78
2021/09/12 05:11:12;;;;;;;;;;;15.50;99.90;;;;;;4984153;28;20042;-76
2021/09/12 05:13:38;;;;;;;6.53;3.50;;;15.40;99.90;;;;;;4998235;28;19917;-79
2021/09/12 05:16:04;;;;;;;4.18;2.75;;;15.40;99.90;;;;;;5011851;28;20046;-78
2021/09/12 05:18:31;;;;;;;5.15;3.20;;;15.40;99.90;;;;;;4985905;28;20470;-78
2021/09/12 05:20:57;;;;;;;4.93;4.43;;;15.40;99.90;;;;;;4996023;28;20050;-78
2021/09/12 05:23:22;;;;;;;4.53;3.15;;;15.40;99.90;;;;;;4991309;28;20640;-79
2021/09/12 05:25:50;;;;;;;5.40;2.75;;;15.40;99.90;;;;;;4991743;28;20053;-78
2021/09/12 05:28:16;;;;;;;5.13;2.85;;;15.40;99.90;;;;;;5002191;28;20041;-78
2021/09/12 05:30:43;;;;;;;5.80;3.15;;;15.40;99.90;;;;;;4982925;28;20059;-78
2021/09/12 05:33:08;;;;;;;;;;;15.30;99.90;;;;;;4994991;28;20065;-78
2021/09/12 05:35:34;;;;;;;2.85;2.53;;;15.40;99.90;;;;;;5002039;28;20437;-78
2021/09/12 05:38:00;;;;;;;;;;;15.40;99.90;;;;;;5003148;28;20053;-78
2021/09/12 05:40:25;;;;;;;3.58;3.08;;;15.40;99.90;;;;;;5012128;28;19929;-78
2021/09/12 05:42:51;;;;;;;5.32;3.47;;;15.40;99.90;;;;;;4982158;28;20749;-78
2021/09/12 05:45:17;;;;;;;;;;;15.50;99.90;;;;;;4985372;28;20098;-78
2021/09/12 05:47:43;;;;;;;6.80;2.03;;;15.50;99.90;;;;;;5002508;28;20412;-78
2021/09/12 05:50:08;;;;;;;;;;;15.50;99.90;;;;;;4993797;28;20038;-78
2021/09/12 05:52:35;;;;;;;9.43;3.53;;;15.50;99.90;;;;;;5014025;28;19918;-78
2021/09/12 05:55:02;;;;;;;4.18;2.85;;;15.50;99.90;;;;;;4997819;28;20493;-78
2021/09/12 05:57:27;;;;;;;;;;;15.60;99.90;;;;;;5002857;28;20121;-79
2021/09/12 05:59:53;;;;;;;4.80;2.95;;;15.60;99.90;;;;;;4995216;28;20360;-79
2021/09/12 06:02:18;;;;;;;;;;;15.60;99.90;;;;;;5000176;28;20038;-79
2021/09/12 06:04:44;;;;;;;5.70;3.33;;;15.60;99.90;;;;;;4997779;28;19925;-79
2021/09/12 06:07:11;;;;;;;6.00;2.60;;;15.70;99.90;;;;;;4984224;28;20043;-79
2021/09/12 06:09:38;;;;;;;8.75;4.03;;;15.70;99.90;;;;;;5008692;28;20042;-79
2021/09/12 06:12:05;;;;;;;6.15;3.63;;;15.70;99.90;;;;;;5012600;28;20361;-78
2021/09/12 06:14:31;;;;;;;4.97;2.80;;;15.80;99.90;;;;;;5010641;28;20050;-79
2021/09/12 06:16:57;;;;;;;8.30;3.75;;;15.80;99.90;;;;;;5014036;28;20361;-78
2021/09/12 06:19:22;;;;;;;;;;;15.80;99.90;;;;;;5010339;28;20065;-79
2021/09/12 06:21:48;;;;;;;4.35;2.92;;;15.90;99.90;;;;;;4995138;28;19918;-78
2021/09/12 06:24:13;;;;;;;;;;;15.90;99.90;;;;;;5007980;28;20053;-78
2021/09/12 06:26:39;;;;;;;5.90;3.53;;;16.00;99.90;;;;;;5026681;28;20395;-79
2021/09/12 06:29:05;;;;;;;;;;;16.00;99.90;;;;;;4988309;28;20095;-78
2021/09/12 06:31:31;;;;;;;6.53;3.42;;;16.10;99.90;;;;;;5027821;28;20000;-79
2021/09/12 06:33:56;;;;;;;4.63;3.03;;;16.00;99.90;;;;;;5005720;28;20120;-78
2021/09/12 06:36:22;;;;;;;8.27;3.22;;;16.10;99.90;;;;;;4993739;28;20046;-78
2021/09/12 06:38:48;;;;;;;10.52;3.88;;;16.10;99.90;;;;;;5002273;28;20053;-79
2021/09/12 06:41:14;;;;;;;;;;;16.20;99.90;;;;;;4993204;28;20049;-79
2021/09/12 06:43:39;;;;;;;6.10;2.45;;;16.30;99.90;;;;;;5010945;28;20014;-79
2021/09/12 06:46:06;;;;;;;5.97;3.88;;;16.30;99.90;;;;;;4998482;28;20077;-78
2021/09/12 06:48:31;;;;;;;10.77;4.22;;;16.30;99.90;;;;;;4996882;28;20125;-79
2021/09/12 06:50:57;;;;;;;4.95;2.83;;;16.40;99.90;;;;;;5001153;28;20121;-79
2021/09/12 06:53:23;;;;;;;;;;;16.50;99.90;;;;;;4998537;28;20042;-79
2021/09/12 06:55:49;;;;;;;3.72;2.47;;;16.50;99.90;;;;;;5026352;28;19965;-79
2021/09/12 06:58:16;;;;;;;9.00;4.15;;;16.70;99.90;;;;;;4980411;28;20110;-79
2021/09/12 07:00:42;;;;;;;5.95;3.40;;;16.70;99.90;;;;;;5006665;28;20125;-79
2021/09/12 07:03:07;;;;;;;6.10;4.57;;;16.80;99.90;;;;;;5005132;28;20128;-79
2021/09/12 07:05:33;;;;;;;;;;;16.90;99.90;;;;;;4997309;28;20048;-79
2021/09/12 07:07:59;;;;;;;4.82;3.45;;;16.90;99.90;;;;;;4992889;28;19918;-79
2021/09/12 07:10:24;;;;;;;;;;;17.00;99.90;;;;;;4979640;28;20058;-79
2021/09/12 07:12:51;;;;;;;8.00;4.28;;;17.10;99.90;;;;;;4993159;28;20004;-79
2021/09/12 07:15:17;;;;;;;6.05;3.63;;;17.20;99.90;;;;;;4993501;28;20041;-79
2021/09/12 07:17:42;;;;;;;;;;;17.30;99.90;;;;;;5009546;28;20499;-79
2021/09/12 07:20:09;;;;;;;5.68;3.22;;;17.30;99.90;;;;;;4992792;28;20374;-79
2021/09/12 07:22:34;;;;;;;6.85;3.90;;;17.40;99.90;;;;;;5010762;28;20048;-79
2021/09/12 07:25:00;;;;;;;;;;;17.50;99.90;;;;;;4995060;28;20041;-79
2021/09/12 07:27:26;;;;;;;5.68;2.63;;;17.50;99.90;;;;;;5013804;28;19961;-79
2021/09/12 07:29:51;;;;;;;;;;;17.60;99.90;;;;;;5012243;28;20431;-77
2021/09/12 07:32:17;;;;;;;9.40;4.95;;;17.60;99.90;;;;;;5038561;28;19921;-77
2021/09/12 07:34:43;;;;;;;;;;;17.60;99.90;;;;;;5003750;28;20518;-79
2021/09/12 07:37:08;;;;;;;6.97;3.67;;;17.70;99.90;;;;;;4998563;28;19921;-79
2021/09/12 07:39:34;;;;;;;;;;;17.80;99.90;;;;;;5007091;28;20038;-77
2021/09/12 07:42:04;;;;;;;3.90;2.90;;;17.80;99.90;;;;;;4977128;28;19928;-77
2021/09/12 07:44:29;;;;;;;7.38;4.07;;;17.90;99.90;;;;;;4998929;28;20058;-79
2021/09/12 07:46:55;;;;;;;;;;;18.00;99.90;;;;;;5003880;28;20391;-79
2021/09/12 07:49:21;;;;;;;3.75;2.92;;;18.00;99.90;;;;;;4989656;28;20363;-78
2021/09/12 07:51:46;;;;;;;;;;;18.00;99.90;;;;;;5007017;28;20049;-78
2021/09/12 07:54:12;;;;;;;6.60;4.75;;;18.00;99.90;;;;;;5005387;28;19922;-78
2021/09/12 07:56:38;;;;;;;;;;;18.00;99.90;;;;;;4993136;28;20419;-78
2021/09/12 07:59:03;;;;;;;4.93;3.08;;;18.00;99.90;;;;;;5000500;28;19917;-79
2021/09/12 08:01:29;;;;;;;;;;;18.10;99.90;;;;;;4995172;28;20045;-78
2021/09/12 08:03:55;;;;;;;17.42;3.40;;;18.10;99.90;;;;;;5016892;28;19922;-78
2021/09/12 08:06:21;;;;;;;;;;;18.10;99.90;;;;;;4993143;28;20109;-77
2021/09/12 08:08:47;;;;;;;5.78;4.43;;;18.10;99.90;;;;;;4993746;28;19921;-79
2021/09/12 08:11:13;;;;;;;;;;;18.10;99.90;;;;;;4992512;28;20951;-79
2021/09/12 08:13:38;;;;;;;11.05;4.05;;;18.10;99.90;;;;;;5032458;28;19918;-78
2021/09/12 08:16:04;;;;;;;;;;;18.10;99.90;;;;;;5017982;28;20095;-79
2021/09/12 08:18:30;;;;;;;13.23;4.75;;;18.10;99.90;;;;;;5002309;28;19917;-79
2021/09/12 08:20:55;;;;;;;;;;;18.20;99.90;;;;;;4999665;28;20107;-75
2021/09/12 08:23:21;;;;;;;6.65;4.38;;;18.10;99.90;;;;;;5007792;28;19925;-79
2021/09/12 08:25:47;;;;;;;;;;;18.20;99.90;;;;;;4980496;28;20069;-79
2021/09/12 08:28:13;;;;;;;4.28;3.47;;;18.20;99.90;;;;;;5011140;28;19918;-78
2021/09/12 08:30:39;;;;;;;;;;;18.30;99.90;;;;;;5000444;28;20506;-76
2021/09/12 08:33:13;;;;;;;6.18;4.43;;;18.30;99.90;;;;;;5025441;28;19918;-76
2021/09/12 08:35:39;;;;;;;5.68;4.40;;;18.40;99.90;;;;;;4991636;28;20054;-78
2021/09/12 08:38:05;;;;;;;6.82;3.92;;;18.50;99.90;;;;;;4991488;28;20046;-78
2021/09/12 08:40:32;;;;;;;12.13;3.97;;;18.60;99.90;;;;;;5000577;28;20065;-77
2021/09/12 08:42:59;;;;;;;12.85;4.43;;;18.60;99.90;;;;;;4991149;28;20096;-78
2021/09/12 08:45:25;;;;;;;12.35;4.40;;;18.70;99.90;;;;;;5007803;28;20053;-79
2021/09/12 08:47:51;;;;;;;5.88;4.07;;;18.70;99.90;;;;;;4980290;28;20372;-78
2021/09/12 08:50:17;;;;;;;5.22;3.58;;;18.70;99.90;;;;;;4994680;28;20419;-77
2021/09/12 08:52:43;;;;;;;;;;;18.80;99.90;;;;;;5004885;28;20042;-78
2021/09/12 08:55:09;;;;;;;5.45;2.83;;;18.80;99.90;;;;;;4991337;28;19925;-78
2021/09/12 08:57:35;;;;;;;;;;;18.90;99.90;;;;;;4991767;28;20053;-78
2021/09/12 09:00:00;;;;;;;8.60;3.67;;;18.90;99.90;;;;;;4990790;28;19925;-78
2021/09/12 09:02:27;;;;;;;;;;;19.10;99.90;;;;;;4975078;28;20049;-78
2021/09/12 09:05:01;;;;;;;7.63;3.95;;;19.20;99.90;;;;;;4978669;28;19969;-78
2021/09/12 09:07:32;;;;;;;6.75;4.40;;;19.30;99.90;;;;;;4991101;28;20044;-77
2021/09/12 09:10:00;;;;;;;5.35;3.22;;;19.20;99.90;;;;;;5008426;28;20388;-78
2021/09/12 09:12:34;;;;;;;5.63;3.78;;;19.20;99.90;;;;;;5010260;28;20103;-78
2021/09/12 09:15:03;;;;;;;6.68;4.38;;;19.30;99.90;;;;;;5011348;28;20056;-77
2021/09/12 09:17:33;;;;;;;8.13;3.55;;;19.40;99.90;;;;;;5010764;28;20049;-75
2021/09/12 09:20:00;;;;;;;5.70;4.15;;;19.50;99.90;;;;;;4988060;28;20535;-78
2021/09/12 09:22:31;;;;;;;13.88;4.13;;;19.60;99.90;;;;;;5017918;28;20073;-78
2021/09/12 09:25:17;;;;;;;10.60;3.15;;;19.70;99.90;;;;;;4990113;28;20050;-78
2021/09/12 09:28:13;;;;;;;6.70;3.08;;;;;;;;;;5010510;28;20074;-76
2021/09/12 09:30:51;;;;;;;4.82;3.33;;;20.10;99.90;;;;;;4999881;28;20057;-75
2021/09/12 09:33:19;;;;;;;6.82;4.28;;;20.40;99.90;;;;;;5003139;28;20081;-78
2021/09/12 09:36:04;;;;;;;6.95;3.97;;;20.60;99.90;;;;;;5007236;28;20134;-78
2021/09/12 09:38:32;;;;;;;4.85;3.28;;;20.60;99.90;;;;;;5006973;28;20104;-77
2021/09/12 09:41:17;;;;;;;10.25;3.83;;;20.70;99.90;;;;;;5009695;28;20046;-78
2021/09/12 09:43:49;;;;;;;5.82;3.53;;;20.80;99.90;;;;;;5011802;28;20042;-77
2021/09/12 09:46:32;;;;;;;4.18;3.17;;;20.80;99.90;;;;;;5009516;28;20030;-77
2021/09/12 09:49:16;;;;;;;6.25;3.63;;;21.00;99.90;;;;;;5002083;28;20038;-78
2021/09/12 09:51:42;;;;;;;6.90;3.35;;;20.90;99.90;;;;;;5010590;28;20468;-78
2021/09/12 09:54:08;;;;;;;6.65;3.70;;;20.90;99.90;;;;;;4990779;28;20057;-78
2021/09/12 09:56:34;;;;;;;6.70;3.40;;;20.90;99.90;;;;;;5010643;28;20475;-77
2021/09/12 09:59:00;;;;;;;4.70;2.92;;;20.80;99.90;;;;;;5012009;28;20050;-78
2021/09/12 10:01:28;;;;;;;4.78;2.90;;;20.60;99.90;;;;;;5011808;28;20050;-78
2021/09/12 10:03:55;;;;;;;5.43;2.95;;;20.30;99.90;;;;;;5008907;28;20050;-77
2021/09/12 10:06:22;;;;;;;5.63;3.30;;;19.90;99.90;;;;;;4993239;28;20129;-77
2021/09/12 10:08:48;;;;;;;5.88;3.83;;;19.50;99.90;;;;;;5011290;28;20038;-77
2021/09/12 10:11:15;;;;;;;6.63;3.95;;;19.10;99.90;;;;;;4994506;28;20045;-78
2021/09/12 10:13:42;;;;;;;9.05;4.30;;;18.90;99.90;;;;;;4998718;28;20046;-78
2021/09/12 10:16:10;;;;;;;4.03;3.47;;;18.70;99.90;;;;;;5021810;28;20081;-77
2021/09/12 10:18:39;;;;;;;9.15;4.60;;;18.60;99.90;;;;;;5013095;28;20364;-77
2021/09/12 10:21:22;;;;;;;9.07;5.57;;;18.60;99.90;;;;;;5013592;28;20349;-77
2021/09/12 10:23:59;;;;;;;7.15;5.25;;;18.60;99.90;;;;;;5013523;28;20080;-78
2021/09/12 10:26:33;;;;;;;11.73;7.25;;;18.90;99.90;;;;;;5002002;28;20073;-77
2021/09/12 10:28:59;;;;;;;6.70;4.55;;;19.00;99.90;;;;;;4996856;28;20096;-77
2021/09/12 10:31:32;;;;;;;6.07;4.85;;;19.10;99.90;;;;;;5006812;28;20054;-77
2021/09/12 10:34:13;;;;;;;11.02;5.85;;;19.20;99.90;;;;;;5010027;28;20049;-77
2021/09/12 10:36:43;;;;;;;11.98;5.25;;;19.30;99.90;;;;;;5014867;28;20435;-78
2021/09/12 10:39:35;;;;;;;7.53;4.57;;;19.30;99.90;;;;;;5013989;28;20480;-78
2021/09/12 10:42:13;;;;;;;10.82;5.95;;;19.20;99.90;;;;;;5009124;28;20092;-78
2021/09/12 10:44:39;;;;;;;7.60;4.95;;;19.20;99.90;;;;;;4996376;28;20046;-77
2021/09/12 10:47:07;;;;;;;5.75;4.55;;;19.10;99.90;;;;;;5011547;28;20453;-77
2021/09/12 10:49:32;;;;;;;9.50;4.20;;;19.00;99.90;;;;;;5013079;28;20042;-77
2021/09/12 10:51:59;;;;;;;9.07;4.90;;;19.00;99.90;;;;;;4995077;28;20040;-78
2021/09/12 10:54:24;;;;;;;;;;;19.10;99.90;;;;;;5013619;28;20053;-76
2021/09/12 10:57:08;;;;;;;3.97;2.08;;;19.30;99.90;;;;;;5013388;28;19917;-77
2021/09/12 10:59:34;;;;;;;2.33;1.60;;;19.50;99.90;;;;;;5012909;28;20049;-77
2021/09/12 11:02:00;;;;;;;3.90;1.92;;;19.60;99.90;;;;;;5005789;28;20060;-77
2021/09/12 11:04:32;;;;;;;1.10;1.00;;;19.80;99.90;;;;;;4978799;28;20407;-77
2021/09/12 11:07:03;;;;;;;1.15;1.05;;;20.00;99.90;;;;;;5011431;28;20052;-78
2021/09/12 11:09:30;;;;;;;1.42;1.23;;;20.00;99.90;;;;;;5012378;28;20443;-76
2021/09/12 11:12:00;;;;;;;1.08;0.98;;;20.00;99.90;;;;;;5010399;28;20034;-76
2021/09/12 11:14:27;;;;;;;1.30;1.00;;;19.90;99.90;;;;;;5013482;28;20078;-75
2021/09/12 11:16:53;;;;;;;1.02;0.90;;;19.90;99.90;;;;;;5015606;28;20403;-78
2021/09/12 11:19:19;;;;;;;0.65;0.65;;;19.90;99.90;;;;;;5008810;28;20392;-75
2021/09/12 11:21:50;;;;;;;1.65;0.95;;;20.00;99.90;;;;;;4995961;28;20049;-76
2021/09/12 11:24:27;;;;;;;0.90;0.85;;;20.00;99.90;;;;;;5012880;28;20042;-76
2021/09/12 11:27:00;;;;;;;0.52;0.52;;;20.10;99.90;;;;;;5012059;28;20054;-76
2021/09/12 11:29:40;;;;;;;1.00;0.90;;;20.20;99.90;;;;;;5001884;28;20046;-75
2021/09/12 11:32:10;;;;;;;0.68;0.63;;;20.30;99.90;;;;;;5003059;28;20380;-74
2021/09/12 11:34:38;;;;;;;0.73;0.70;;;20.20;99.90;;;;;;5012271;28;20050;-76
2021/09/12 11:37:09;;;;;;;1.33;0.85;;;20.20;99.90;;;;;;5014566;28;20042;-74
2021/09/12 11:39:38;;;;;;;5.88;1.00;;;20.10;99.90;;;;;;5009998;28;20054;-74
2021/09/12 11:42:06;;;;;;;0.63;0.55;;;20.20;99.90;;;;;;4995570;28;20403;-75
2021/09/12 11:44:43;;;;;;;0.70;0.68;;;20.40;99.90;;;;;;5011192;28;20054;-74
2021/09/12 11:47:11;;;;;;;0.80;0.80;;;20.70;99.90;;;;;;5004911;28;20483;-74
2021/09/12 11:49:39;;;;;;;0.60;0.60;;;21.10;99.90;;;;;;5011131;28;20399;-77
2021/09/12 11:52:05;;;;;;;0.55;0.55;;;21.40;99.90;;;;;;5011697;28;20069;-75
2021/09/12 11:54:32;;;;;;;0.60;0.60;;;21.40;99.90;;;;;;5008568;28;20188;-75
2021/09/12 11:57:06;;;;;;;0.57;0.50;;;21.50;99.90;;;;;;5005446;28;20037;-74
2021/09/12 11:59:39;;;;;;;0.63;0.45;;;21.70;99.90;;;;;;5010554;28;20053;-75
2021/09/12 12:02:10;;;;;;;0.50;0.50;;;21.70;99.90;;;;;;4995245;28;20120;-75
2021/09/12 12:04:38;;;;;;;0.55;0.55;;;21.70;99.90;;;;;;5001798;28;20102;-75
2021/09/12 12:07:04;;;;;;;1.20;0.88;;;21.80;99.90;;;;;;5011277;28;20073;-75
2021/09/12 12:09:46;;;;;;;3.05;0.82;;;21.80;99.90;;;;;;4994705;28;20092;-75
2021/09/12 12:12:14;;;;;;;0.73;0.73;;;21.80;99.90;;;;;;5012075;28;20128;-75
2021/09/12 12:15:04;;;;;;;0.82;0.75;;;21.90;99.90;;;;;;5011507;28;20050;-74
2021/09/12 12:17:30;;;;;;;0.75;0.73;;;22.00;99.90;;;;;;5002386;28;20095;-76
2021/09/12 12:19:57;;;;;;;2.08;1.13;;;22.00;99.90;;;;;;5010400;28;20049;-77
2021/09/12 12:22:35;;;;;;;1.23;0.90;;;22.00;99.90;;;;;;5011404;28;20038;-77
2021/09/12 12:25:01;;;;;;;2.75;1.05;;;22.00;99.90;;;;;;5010130;28;20042;-75
2021/09/12 12:27:27;;;;;;;0.88;0.77;;;22.00;99.90;;;;;;5008716;28;20101;-75
2021/09/12 12:29:59;;;;;;;1.60;0.80;;;22.00;99.90;;;;;;5011362;28;20179;-75
2021/09/12 12:32:26;;;;;;;1.13;0.88;;;22.10;99.90;;;;;;4992399;28;20048;-78
2021/09/12 12:34:53;;;;;;;0.85;0.85;;;22.20;99.90;;;;;;5010358;28;20064;-77
2021/09/12 12:37:35;;;;;;;1.00;0.90;;;22.40;99.90;;;;;;4994223;28;20049;-77
2021/09/12 12:40:07;;;;;;;1.02;0.90;;;22.50;99.90;;;;;;5030914;28;20053;-78
2021/09/12 12:42:41;;;;;;;0.77;0.75;;;22.50;99.90;;;;;;4994419;28;20046;-78
2021/09/12 12:45:28;;;;;;;0.68;0.68;;;22.20;99.90;;;;;;5011493;28;20054;-76
2021/09/12 12:47:54;;;;;;;;;;;21.90;99.90;;;;;;4991539;28;20053;-77
2021/09/12 12:50:33;;;;;;;2.25;1.30;;;21.60;99.90;;;;;;5041522;28;19917;-78
2021/09/12 12:53:07;;;;;;;1.25;1.02;;;21.50;99.90;;;;;;5019587;28;20045;-76
2021/09/12 12:55:33;;;;;;;1.75;0.95;;;21.40;99.90;;;;;;5010750;28;20398;-78
2021/09/12 12:57:59;;;;;;;1.05;0.98;;;21.30;99.90;;;;;;5011305;28;20033;-77
2021/09/12 13:00:25;;;;;;;1.17;0.85;;;21.30;99.90;;;;;;4994637;28;20038;-78
2021/09/12 13:02:50;;;;;;;1.13;0.88;;;21.50;99.90;;;;;;4993792;28;20041;-77
2021/09/12 13:05:16;;;;;;;1.40;1.10;;;21.70;99.90;;;;;;5010451;28;20077;-77
2021/09/12 13:07:41;;;;;;;5.05;1.30;;;21.80;99.90;;;;;;5003727;28;20044;-77